Terminal Aerodrome Forecast
Issued by NWS

Home | Current Version | Previous Version | Text Only | Print | Product List | Glossary On
Versions: 1 2 3 4 5 6 7 8 9 10 11 12 13 14 15 16 17 18 19 20 21 22 23 24 25 26 27 28 29 30 31 32 33 34 35
417
FTUS43 KDLH 152336
TAFHIB
TAF
KHIB 152336Z 1600/1624 21005KT P6SM FEW250
     FM160600 VRB03KT 6SM BR SCT007
      TEMPO 1610/1614 4SM BR
     FM161800 19003KT P6SM SCT200=

USA.gov is the U.S. government's official web portal to all federal, state and local government web resources and services.